createdAt,value
2022-09-04T00:00:19.372Z,4.80
2022-09-04T00:02:53.321Z,3.25
2022-09-04T00:05:25.380Z,4.85
2022-09-04T00:08:12.294Z,3.35
2022-09-04T00:11:03.816Z,5.63
2022-09-04T00:13:40.124Z,4.40
2022-09-04T00:16:17.367Z,5.78
2022-09-04T00:19:03.019Z,4.53
2022-09-04T00:21:55.788Z,5.07
2022-09-04T00:24:28.422Z,3.72
2022-09-04T00:27:01.467Z,2.50
2022-09-04T00:29:51.810Z,3.53
2022-09-04T00:35:16.108Z,4.30
2022-09-04T00:40:40.958Z,2.63
2022-09-04T00:43:31.085Z,3.63
2022-09-04T00:46:40.147Z,3.35
2022-09-04T00:49:25.369Z,7.32
2022-09-04T00:52:03.033Z,5.40
2022-09-04T00:55:08.703Z,9.30
2022-09-04T00:58:01.537Z,13.35
2022-09-04T01:00:30.793Z,14.52
2022-09-04T01:03:30.328Z,9.55
2022-09-04T01:06:25.640Z,17.20
2022-09-04T01:09:28.403Z,9.65
2022-09-04T01:12:08.020Z,9.18
2022-09-04T01:14:56.027Z,9.82
2022-09-04T01:17:35.987Z,7.90
2022-09-04T01:20:17.069Z,9.73
2022-09-04T01:23:08.216Z,7.93
2022-09-04T01:26:00.047Z,7.30
2022-09-04T01:28:54.144Z,8.77
2022-09-04T01:31:36.563Z,10.15
2022-09-04T01:34:25.088Z,7.13
2022-09-04T01:37:07.231Z,7.47
2022-09-04T01:39:38.157Z,10.60
2022-09-04T01:42:14.514Z,8.25
2022-09-04T01:44:42.604Z,7.85
2022-09-04T01:47:25.661Z,7.38
2022-09-04T01:50:08.361Z,8.38
2022-09-04T01:53:02.606Z,11.27
2022-09-04T01:56:16.970Z,9.02
2022-09-04T01:58:57.127Z,10.95
2022-09-04T02:01:35.781Z,6.45
2022-09-04T02:04:31.838Z,9.27
2022-09-04T02:07:10.903Z,7.80
2022-09-04T02:10:08.243Z,11.77
2022-09-04T02:12:53.533Z,7.00
2022-09-04T02:15:44.248Z,11.00
2022-09-04T02:18:31.513Z,12.38
2022-09-04T02:21:10.809Z,5.13
2022-09-04T02:24:04.844Z,5.00
2022-09-04T02:26:59.070Z,7.60
2022-09-04T02:29:36.707Z,6.18
2022-09-04T02:32:30.065Z,6.60
2022-09-04T02:35:08.995Z,8.32
2022-09-04T02:37:44.848Z,7.05
2022-09-04T02:40:30.193Z,9.00
2022-09-04T02:43:19.400Z,7.13
2022-09-04T02:46:02.089Z,6.43
2022-09-04T02:48:47.464Z,16.15
2022-09-04T02:51:45.691Z,10.25
2022-09-04T02:54:37.395Z,10.40
2022-09-04T02:57:40.298Z,9.63
2022-09-04T03:00:21.402Z,6.80
2022-09-04T03:02:56.091Z,9.00
2022-09-04T03:05:27.696Z,7.28
2022-09-04T03:08:30.299Z,5.32
2022-09-04T03:11:12.656Z,14.85
2022-09-04T03:13:52.009Z,9.18
2022-09-04T03:16:51.358Z,7.47
2022-09-04T03:19:31.762Z,6.88
2022-09-04T03:22:10.922Z,6.45
2022-09-04T03:24:44.125Z,6.95
2022-09-04T03:27:14.347Z,9.25
2022-09-04T03:29:53.112Z,7.82
2022-09-04T03:32:35.117Z,6.13
2022-09-04T03:35:33.335Z,9.80
2022-09-04T03:38:23.584Z,13.32
2022-09-04T03:41:25.294Z,6.80
2022-09-04T03:44:13.860Z,8.30
2022-09-04T03:46:52.911Z,14.38
2022-09-04T03:49:46.295Z,8.75
2022-09-04T03:52:20.131Z,6.22
2022-09-04T03:54:58.963Z,6.30
2022-09-04T03:57:58.974Z,8.32
2022-09-04T04:00:29.852Z,14.30
2022-09-04T04:05:28.564Z,7.35
2022-09-04T04:08:17.436Z,6.65
2022-09-04T04:11:26.368Z,11.88
2022-09-04T04:14:17.619Z,6.68
2022-09-04T04:17:01.930Z,5.22
2022-09-04T04:20:02.727Z,7.15
2022-09-04T04:22:45.877Z,7.93
2022-09-04T04:25:25.302Z,14.75
2022-09-04T04:28:24.237Z,6.95
2022-09-04T04:30:54.579Z,8.65
2022-09-04T04:33:24.493Z,6.75
2022-09-04T04:36:13.263Z,4.73
2022-09-04T04:38:48.214Z,7.22
2022-09-04T04:41:55.302Z,4.93
2022-09-04T04:44:54.450Z,4.43
2022-09-04T04:47:52.336Z,4.43
2022-09-04T04:50:43.280Z,4.68
2022-09-04T04:56:19.319Z,4.10
2022-09-04T04:59:15.991Z,3.97
2022-09-04T05:02:08.937Z,5.50
2022-09-04T05:04:49.046Z,7.93
2022-09-04T05:08:04.983Z,4.72
2022-09-04T05:10:47.941Z,3.67
2022-09-04T05:13:17.727Z,4.60
2022-09-04T05:16:08.091Z,4.87
2022-09-04T05:18:47.926Z,2.65
2022-09-04T05:21:29.309Z,3.17
2022-09-04T05:24:20.103Z,2.08
2022-09-04T05:27:12.511Z,3.60
2022-09-04T05:29:47.653Z,3.72
2022-09-04T05:32:25.715Z,1.27
2022-09-04T05:35:11.193Z,3.63
2022-09-04T05:37:51.411Z,1.75
2022-09-04T05:40:21.601Z,2.03
2022-09-04T05:43:07.290Z,3.33
2022-09-04T05:45:58.530Z,3.70
2022-09-04T05:49:07.687Z,5.68
2022-09-04T05:51:43.949Z,2.55
2022-09-04T05:54:44.424Z,0.65
2022-09-04T05:57:45.065Z,1.60
2022-09-04T06:00:16.373Z,5.00
2022-09-04T06:03:07.711Z,1.92
2022-09-04T06:06:02.691Z,4.95
2022-09-04T06:09:07.232Z,0.43
2022-09-04T06:11:49.961Z,3.65
2022-09-04T06:14:44.416Z,2.78
2022-09-04T06:17:39.433Z,2.53
2022-09-04T06:20:28.313Z,2.35
2022-09-04T06:23:17.420Z,1.90
2022-09-04T06:26:10.045Z,1.33
2022-09-04T06:28:42.999Z,3.80
2022-09-04T06:31:33.013Z,4.90
2022-09-04T06:34:30.212Z,4.82
2022-09-04T06:37:05.559Z,1.77
2022-09-04T06:40:00.976Z,1.70
2022-09-04T06:43:01.724Z,0.63
2022-09-04T06:45:46.821Z,1.52
2022-09-04T06:48:22.867Z,2.17
2022-09-04T06:51:28.337Z,1.05
2022-09-04T06:54:20.181Z,4.35
2022-09-04T06:57:10.488Z,2.40
2022-09-04T06:59:56.040Z,1.65
2022-09-04T07:03:00.711Z,1.20
2022-09-04T07:06:09.168Z,1.48
2022-09-04T07:08:55.250Z,3.78
2022-09-04T07:11:43.991Z,3.03
2022-09-04T07:14:41.569Z,2.00
2022-09-04T07:17:37.842Z,2.53
2022-09-04T07:20:08.347Z,2.80
2022-09-04T07:23:04.476Z,2.20
2022-09-04T07:25:52.873Z,0.80
2022-09-04T07:28:54.091Z,4.28
2022-09-04T07:31:44.005Z,1.13
2022-09-04T07:34:33.567Z,1.17
2022-09-04T07:37:13.519Z,1.23
2022-09-04T07:39:50.915Z,0.95
2022-09-04T07:42:34.934Z,1.42
2022-09-04T07:45:17.231Z,1.35
2022-09-04T07:47:55.314Z,1.20
2022-09-04T07:50:28.682Z,1.35
2022-09-04T07:53:30.904Z,1.83
2022-09-04T07:56:06.801Z,0.90
2022-09-04T07:58:44.962Z,2.15
2022-09-04T08:01:42.653Z,1.00
2022-09-04T08:04:28.522Z,1.10
2022-09-04T08:07:02.879Z,1.08
2022-09-04T08:09:30.056Z,8.45
2022-09-04T08:11:58.264Z,1.98
2022-09-04T08:15:02.807Z,4.25
2022-09-04T08:17:48.985Z,3.42
2022-09-04T08:20:39.145Z,1.00
2022-09-04T08:23:35.301Z,1.13
2022-09-04T08:26:31.987Z,1.33
2022-09-04T08:29:26.589Z,0.80
2022-09-04T08:32:15.398Z,0.95
2022-09-04T08:35:08.169Z,1.02
2022-09-04T08:37:56.613Z,1.20
2022-09-04T08:40:52.250Z,1.05
2022-09-04T08:43:22.501Z,0.75
2022-09-04T08:46:14.511Z,0.70
2022-09-04T08:49:07.675Z,4.32
2022-09-04T08:52:08.924Z,2.08
2022-09-04T08:55:12.379Z,2.03
2022-09-04T08:58:09.240Z,1.15
2022-09-04T09:01:03.690Z,1.02
2022-09-04T09:03:49.841Z,0.70
2022-09-04T09:06:25.860Z,2.08
2022-09-04T09:09:22.474Z,6.47
2022-09-04T09:12:19.810Z,0.60
2022-09-04T09:14:53.241Z,1.30
2022-09-04T09:17:57.890Z,1.10
2022-09-04T09:20:31.016Z,2.72
2022-09-04T09:23:18.502Z,1.70
2022-09-04T09:25:53.192Z,1.60
2022-09-04T09:28:35.339Z,3.58
2022-09-04T09:31:11.242Z,1.10
2022-09-04T09:34:13.546Z,1.20
2022-09-04T09:37:11.677Z,1.63
2022-09-04T09:40:19.959Z,1.58
2022-09-04T09:43:26.863Z,1.02
2022-09-04T09:46:01.028Z,1.20
2022-09-04T09:48:49.923Z,1.33
2022-09-04T09:51:20.047Z,0.82
2022-09-04T09:54:23.234Z,1.38
2022-09-04T09:57:15.084Z,0.90
2022-09-04T10:00:15.206Z,2.08
2022-09-04T10:03:27.560Z,1.23
2022-09-04T10:06:14.433Z,2.70
2022-09-04T10:09:19.180Z,1.17
2022-09-04T10:12:23.925Z,0.40
2022-09-04T10:15:22.516Z,0.55
2022-09-04T10:18:23.274Z,1.05
2022-09-04T10:21:13.058Z,1.75
2022-09-04T10:24:12.086Z,3.85
2022-09-04T10:26:54.527Z,1.58
2022-09-04T10:29:46.193Z,2.80
2022-09-04T10:32:33.118Z,0.60
2022-09-04T10:35:25.407Z,0.98
2022-09-04T10:38:11.515Z,1.65
2022-09-04T10:40:59.760Z,0.45
2022-09-04T10:43:52.667Z,5.05
2022-09-04T10:46:28.439Z,1.25
2022-09-04T10:49:04.480Z,0.90
2022-09-04T10:52:10.161Z,1.13
2022-09-04T10:54:54.905Z,0.82
2022-09-04T10:57:40.562Z,1.98
2022-09-04T11:00:14.009Z,1.23
2022-09-04T11:03:07.428Z,0.43
2022-09-04T11:05:53.136Z,0.30
2022-09-04T11:08:36.430Z,0.52
2022-09-04T11:11:14.228Z,0.77
2022-09-04T11:13:51.305Z,1.23
2022-09-04T11:16:27.713Z,1.00
2022-09-04T11:19:16.276Z,1.67
2022-09-04T11:21:43.388Z,1.33
2022-09-04T11:24:29.191Z,3.30
2022-09-04T11:27:15.893Z,1.60
2022-09-04T11:30:02.512Z,1.10
2022-09-04T11:32:56.157Z,1.52
2022-09-04T11:35:42.342Z,0.65
2022-09-04T11:38:17.600Z,1.40
2022-09-04T11:41:29.543Z,2.03
2022-09-04T11:44:15.763Z,5.40
2022-09-04T11:46:47.842Z,1.15
2022-09-04T11:49:31.215Z,1.33
2022-09-04T11:52:35.784Z,4.18
2022-09-04T11:55:25.235Z,2.05
2022-09-04T11:58:12.207Z,3.35
2022-09-04T12:01:05.189Z,1.33
2022-09-04T12:04:03.046Z,3.05
2022-09-04T12:07:06.216Z,1.10
2022-09-04T12:10:04.189Z,2.35
2022-09-04T12:13:03.322Z,1.83
2022-09-04T12:16:14.372Z,1.10
2022-09-04T12:18:58.630Z,1.95
2022-09-04T12:21:53.125Z,0.70
2022-09-04T12:24:20.304Z,1.33
2022-09-04T12:27:17.787Z,1.13
2022-09-04T12:30:12.814Z,2.00
2022-09-04T12:32:52.585Z,1.30
2022-09-04T12:35:43.410Z,1.93
2022-09-04T12:41:11.794Z,1.20
2022-09-04T12:44:08.802Z,0.88
2022-09-04T12:46:36.004Z,2.00
2022-09-04T12:49:28.000Z,1.08
2022-09-04T12:52:19.209Z,3.13
2022-09-04T12:55:33.385Z,1.55
2022-09-04T12:58:38.871Z,0.73
2022-09-04T13:02:08.002Z,1.30
2022-09-04T13:04:47.331Z,3.28
2022-09-04T13:07:45.720Z,5.65
2022-09-04T13:10:33.173Z,2.95
2022-09-04T13:13:25.114Z,2.08
2022-09-04T13:16:07.246Z,1.67
2022-09-04T13:19:01.693Z,1.45
2022-09-04T13:21:48.633Z,0.70
2022-09-04T13:24:51.473Z,2.55
2022-09-04T13:27:27.551Z,2.67
2022-09-04T13:30:07.225Z,6.00
2022-09-04T13:33:12.815Z,0.90
2022-09-04T13:36:07.343Z,1.02
2022-09-04T13:39:19.244Z,0.45
2022-09-04T13:41:52.383Z,4.97
2022-09-04T13:44:19.562Z,0.73
2022-09-04T13:47:09.152Z,1.95
2022-09-04T13:49:42.803Z,2.25
2022-09-04T13:52:18.173Z,0.70
2022-09-04T13:54:52.850Z,1.60
2022-09-04T13:57:47.911Z,1.30
2022-09-04T14:00:17.158Z,1.30
2022-09-04T14:02:47.208Z,3.90
2022-09-04T14:05:20.627Z,0.65
2022-09-04T14:07:57.201Z,1.45
2022-09-04T14:10:52.278Z,1.02
2022-09-04T14:13:36.127Z,1.23
2022-09-04T14:16:06.803Z,0.77
2022-09-04T14:18:45.620Z,1.95
2022-09-04T14:21:17.008Z,0.77
2022-09-04T14:24:06.687Z,1.02
2022-09-04T14:26:57.893Z,0.60
2022-09-04T14:29:25.450Z,3.95
2022-09-04T14:32:18.861Z,1.15
2022-09-04T14:35:02.870Z,4.18
2022-09-04T14:37:49.189Z,1.42
2022-09-04T14:40:28.809Z,1.60
2022-09-04T14:43:15.445Z,2.65
2022-09-04T14:46:07.494Z,0.50
2022-09-04T14:48:42.062Z,2.00
2022-09-04T14:51:31.487Z,2.47
2022-09-04T14:54:02.053Z,2.40
2022-09-04T14:56:43.889Z,4.53
2022-09-04T14:59:24.321Z,0.95
2022-09-04T15:02:20.905Z,4.10
2022-09-04T15:05:01.760Z,1.90
2022-09-04T15:07:43.124Z,3.95
2022-09-04T15:10:26.036Z,3.58
2022-09-04T15:13:05.730Z,0.77
2022-09-04T15:15:42.867Z,0.20
2022-09-04T15:18:19.276Z,1.45
2022-09-04T15:21:30.112Z,1.00
2022-09-04T15:24:03.643Z,1.02
2022-09-04T15:26:47.675Z,1.65
2022-09-04T15:29:14.867Z,3.58
2022-09-04T15:31:43.154Z,3.08
2022-09-04T15:34:20.779Z,0.88
2022-09-04T15:36:49.010Z,1.63
2022-09-04T15:39:51.446Z,2.88
2022-09-04T15:42:44.841Z,1.05
2022-09-04T15:46:04.728Z,3.95
2022-09-04T15:48:53.464Z,3.70
2022-09-04T15:51:57.638Z,2.28
2022-09-04T15:54:35.193Z,7.90
2022-09-04T15:57:14.060Z,2.60
2022-09-04T15:59:59.246Z,0.93
2022-09-04T16:02:46.805Z,2.28
2022-09-04T16:05:28.273Z,1.55
2022-09-04T16:08:21.353Z,3.33
2022-09-04T16:10:55.439Z,3.30
2022-09-04T16:13:25.924Z,1.73
2022-09-04T16:16:15.691Z,2.88
2022-09-04T16:19:15.358Z,2.78
2022-09-04T16:22:11.540Z,1.85
2022-09-04T16:25:08.289Z,2.70
2022-09-04T16:27:55.952Z,3.55
2022-09-04T16:30:33.135Z,5.22
2022-09-04T16:33:02.815Z,4.78
2022-09-04T16:35:36.409Z,2.25
2022-09-04T16:38:15.317Z,3.28
2022-09-04T16:41:02.450Z,2.45
2022-09-04T16:43:34.261Z,0.77
2022-09-04T16:46:32.803Z,3.45
2022-09-04T16:49:35.349Z,4.15
2022-09-04T16:52:24.485Z,5.95
2022-09-04T16:54:56.819Z,3.45
2022-09-04T16:57:34.184Z,5.78
2022-09-04T17:00:24.156Z,4.72
2022-09-04T17:02:57.755Z,2.03
2022-09-04T17:05:41.716Z,4.68
2022-09-04T17:08:14.142Z,3.13
2022-09-04T17:11:00.055Z,2.40
2022-09-04T17:13:38.079Z,4.13
2022-09-04T17:16:17.756Z,3.63
2022-09-04T17:18:54.894Z,3.72
2022-09-04T17:25:04.309Z,3.80
2022-09-04T17:29:11.132Z,3.17
2022-09-04T17:29:15.230Z,4.15
2022-09-04T17:31:19.611Z,2.10
2022-09-04T17:40:36.393Z,3.78
2022-09-04T17:40:50.299Z,1.38
2022-09-04T17:40:56.730Z,3.88
2022-09-04T17:43:28.640Z,3.83
2022-09-04T17:46:14.792Z,4.78
2022-09-04T17:48:44.947Z,2.15
2022-09-04T17:51:22.618Z,6.90
2022-09-04T17:53:55.948Z,4.22
2022-09-04T17:56:29.436Z,7.68
2022-09-04T17:59:24.434Z,2.17
2022-09-04T18:01:52.406Z,8.02
2022-09-04T18:04:35.690Z,3.20
2022-09-04T18:07:31.704Z,9.30
2022-09-04T18:10:34.304Z,4.10
2022-09-04T18:13:06.632Z,3.08
2022-09-04T18:15:57.785Z,2.20
2022-09-04T18:18:37.181Z,3.33
2022-09-04T18:21:41.504Z,1.95
2022-09-04T18:24:18.059Z,3.67
2022-09-04T18:27:02.234Z,3.97
2022-09-04T18:31:59.172Z,3.97
2022-09-04T18:37:16.262Z,3.22
2022-09-04T18:37:25.847Z,7.55
2022-09-04T18:38:44.841Z,4.75
2022-09-04T18:45:34.409Z,7.82
2022-09-04T18:50:31.761Z,5.25
2022-09-04T18:50:43.761Z,4.45
2022-09-04T18:51:14.059Z,4.47
2022-09-04T18:53:45.754Z,2.90
2022-09-04T18:56:22.877Z,6.25
2022-09-04T18:58:57.659Z,4.25
2022-09-04T19:01:27.226Z,4.97
2022-09-04T19:04:20.971Z,8.73
2022-09-04T19:07:07.271Z,5.28
2022-09-04T19:10:05.559Z,3.25
2022-09-04T19:12:47.497Z,2.03
2022-09-04T19:15:45.547Z,4.03
2022-09-04T19:18:50.697Z,4.35
2022-09-04T19:21:40.967Z,4.63
2022-09-04T19:24:34.396Z,4.70
2022-09-04T19:27:26.405Z,2.60
2022-09-04T19:30:19.778Z,3.85
2022-09-04T19:32:58.115Z,4.88
2022-09-04T19:35:44.356Z,4.95
2022-09-04T19:45:54.698Z,6.85
2022-09-04T19:46:07.787Z,3.97
2022-09-04T19:46:17.919Z,5.20
2022-09-04T19:47:29.072Z,9.20
2022-09-04T19:53:19.745Z,3.88
2022-09-04T19:53:41.177Z,5.90
2022-09-04T19:56:25.971Z,6.13
2022-09-04T20:01:49.613Z,5.15
2022-09-04T20:04:41.089Z,3.63
2022-09-04T20:07:27.616Z,4.30
2022-09-04T20:09:59.208Z,4.32
2022-09-04T20:12:35.137Z,3.38
2022-09-04T20:15:28.259Z,4.25
2022-09-04T20:18:23.034Z,5.18
2022-09-04T20:21:07.801Z,3.03
2022-09-04T20:23:46.799Z,2.28
2022-09-04T20:26:20.578Z,4.57
2022-09-04T20:28:58.704Z,3.17
2022-09-04T20:31:42.055Z,5.63
2022-09-04T20:34:34.461Z,5.63
2022-09-04T20:37:22.600Z,2.33
2022-09-04T20:40:14.582Z,5.20
2022-09-04T20:42:51.472Z,4.38
2022-09-04T20:46:52.707Z,5.45
2022-09-04T20:52:53.684Z,6.05
2022-09-04T20:52:55.058Z,2.13
2022-09-04T20:54:51.009Z,5.38
2022-09-04T21:03:07.239Z,4.78
2022-09-04T21:03:23.358Z,2.72
2022-09-04T21:03:39.205Z,4.43
2022-09-04T21:06:18.711Z,3.30
2022-09-04T21:08:45.807Z,3.67
2022-09-04T21:11:39.275Z,3.20
2022-09-04T21:14:18.788Z,5.38
2022-09-04T21:17:34.875Z,2.78
2022-09-04T21:20:03.712Z,2.80
2022-09-04T21:22:52.186Z,6.68
2022-09-04T21:25:40.161Z,5.45
2022-09-04T21:28:10.149Z,6.45
2022-09-04T21:30:37.378Z,4.10
2022-09-04T21:33:26.808Z,5.97
2022-09-04T21:36:26.380Z,5.13
2022-09-04T21:39:29.753Z,5.07
2022-09-04T21:42:17.169Z,2.30
2022-09-04T21:45:09.719Z,3.85
2022-09-04T21:48:01.598Z,5.10
2022-09-04T21:50:43.428Z,3.70
2022-09-04T21:53:38.493Z,9.45
2022-09-04T22:01:02.049Z,3.42
2022-09-04T22:02:43.458Z,2.67
2022-09-04T22:02:52.753Z,4.60
2022-09-04T22:05:31.439Z,3.15
2022-09-04T22:13:33.827Z,7.32
2022-09-04T22:13:43.867Z,4.25
2022-09-04T22:14:37.501Z,2.83
2022-09-04T22:17:34.604Z,2.03
2022-09-04T22:20:18.833Z,3.58
2022-09-04T22:23:10.216Z,2.40
2022-09-04T22:26:09.205Z,2.50
2022-09-04T22:29:04.905Z,2.83
2022-09-04T22:31:54.653Z,1.88
2022-09-04T22:35:15.505Z,3.58
2022-09-04T22:38:03.501Z,2.05
2022-09-04T22:41:06.146Z,2.72
2022-09-04T22:43:46.481Z,1.73
2022-09-04T22:49:38.400Z,2.13
2022-09-04T22:52:33.642Z,3.60
2022-09-04T22:55:29.392Z,2.53
2022-09-04T22:58:30.416Z,3.45
2022-09-04T23:01:28.077Z,2.17
2022-09-04T23:04:26.097Z,2.55
2022-09-04T23:12:49.316Z,2.75
2022-09-04T23:13:48.889Z,4.75
2022-09-04T23:13:57.623Z,6.67
2022-09-04T23:16:40.084Z,3.20
2022-09-04T23:24:15.123Z,3.70
2022-09-04T23:26:41.825Z,4.03
2022-09-04T23:26:47.171Z,4.03
2022-09-04T23:29:04.503Z,7.70
2022-09-04T23:32:07.435Z,7.32
2022-09-04T23:35:14.311Z,4.75
2022-09-04T23:38:03.489Z,5.00
2022-09-04T23:40:47.235Z,3.63
2022-09-04T23:43:14.315Z,7.05
2022-09-04T23:46:08.798Z,7.05
2022-09-04T23:48:48.434Z,7.57
2022-09-04T23:51:18.434Z,3.85
2022-09-04T23:53:48.156Z,4.57
2022-09-04T23:56:27.371Z,8.98
2022-09-04T23:59:34.053Z,4.18
